sensor_id;sensor_type;location;lat;lon;timestamp;P1;durP1;ratioP1;P2;durP2;ratioP2
37973;SDS011;23796;51.458;7.000;2023-07-31T00:01:57;5.15;;;2.63;;
37973;SDS011;23796;51.458;7.000;2023-07-31T00:04:23;5.90;;;2.95;;
37973;SDS011;23796;51.458;7.000;2023-07-31T00:06:48;7.88;;;3.30;;
37973;SDS011;23796;51.458;7.000;2023-07-31T00:09:14;6.68;;;3.47;;
37973;SDS011;23796;51.458;7.000;2023-07-31T00:11:39;6.70;;;2.92;;
37973;SDS011;23796;51.458;7.000;2023-07-31T00:14:05;5.22;;;2.72;;
37973;SDS011;23796;51.458;7.000;2023-07-31T00:16:31;6.65;;;2.90;;
37973;SDS011;23796;51.458;7.000;2023-07-31T00:18:56;7.75;;;2.97;;
37973;SDS011;23796;51.458;7.000;2023-07-31T00:21:22;8.00;;;3.65;;
37973;SDS011;23796;51.458;7.000;2023-07-31T00:23:47;5.82;;;3.03;;
37973;SDS011;23796;51.458;7.000;2023-07-31T00:26:13;6.55;;;3.03;;
37973;SDS011;23796;51.458;7.000;2023-07-31T00:28:39;10.48;;;3.60;;
37973;SDS011;23796;51.458;7.000;2023-07-31T00:31:04;6.93;;;3.67;;
37973;SDS011;23796;51.458;7.000;2023-07-31T00:33:34;8.00;;;3.30;;
37973;SDS011;23796;51.458;7.000;2023-07-31T00:36:02;8.48;;;3.97;;
37973;SDS011;23796;51.458;7.000;2023-07-31T00:38:28;7.10;;;3.58;;
37973;SDS011;23796;51.458;7.000;2023-07-31T00:40:54;7.90;;;3.65;;
37973;SDS011;23796;51.458;7.000;2023-07-31T00:43:19;7.18;;;3.75;;
37973;SDS011;23796;51.458;7.000;2023-07-31T00:45:45;9.40;;;3.70;;
37973;SDS011;23796;51.458;7.000;2023-07-31T00:48:10;8.48;;;3.70;;
37973;SDS011;23796;51.458;7.000;2023-07-31T00:50:36;7.13;;;3.42;;
37973;SDS011;23796;51.458;7.000;2023-07-31T00:53:04;7.10;;;3.60;;
37973;SDS011;23796;51.458;7.000;2023-07-31T00:55:34;7.22;;;3.85;;
37973;SDS011;23796;51.458;7.000;2023-07-31T00:58:00;6.10;;;2.90;;
37973;SDS011;23796;51.458;7.000;2023-07-31T01:00:26;6.22;;;2.80;;
37973;SDS011;23796;51.458;7.000;2023-07-31T01:02:51;8.38;;;3.50;;
37973;SDS011;23796;51.458;7.000;2023-07-31T01:05:19;5.82;;;2.63;;
37973;SDS011;23796;51.458;7.000;2023-07-31T01:08:18;6.43;;;3.70;;
37973;SDS011;23796;51.458;7.000;2023-07-31T01:10:50;8.25;;;3.60;;
37973;SDS011;23796;51.458;7.000;2023-07-31T01:13:25;5.85;;;3.55;;
37973;SDS011;23796;51.458;7.000;2023-07-31T01:15:51;7.28;;;3.40;;
37973;SDS011;23796;51.458;7.000;2023-07-31T01:18:17;8.70;;;3.17;;
37973;SDS011;23796;51.458;7.000;2023-07-31T01:20:46;9.68;;;3.72;;
37973;SDS011;23796;51.458;7.000;2023-07-31T01:23:37;8.02;;;3.42;;
37973;SDS011;23796;51.458;7.000;2023-07-31T01:26:22;7.57;;;3.55;;
37973;SDS011;23796;51.458;7.000;2023-07-31T01:29:01;8.73;;;3.83;;
37973;SDS011;23796;51.458;7.000;2023-07-31T01:31:33;7.32;;;3.35;;
37973;SDS011;23796;51.458;7.000;2023-07-31T01:34:01;6.80;;;3.33;;
37973;SDS011;23796;51.458;7.000;2023-07-31T01:36:28;9.02;;;3.78;;
37973;SDS011;23796;51.458;7.000;2023-07-31T01:38:59;7.55;;;3.45;;
37973;SDS011;23796;51.458;7.000;2023-07-31T01:41:25;7.03;;;3.28;;
37973;SDS011;23796;51.458;7.000;2023-07-31T01:43:51;7.90;;;3.03;;
37973;SDS011;23796;51.458;7.000;2023-07-31T01:46:17;6.57;;;3.70;;
37973;SDS011;23796;51.458;7.000;2023-07-31T01:48:42;8.02;;;3.10;;
37973;SDS011;23796;51.458;7.000;2023-07-31T01:51:08;6.68;;;3.17;;
37973;SDS011;23796;51.458;7.000;2023-07-31T01:53:34;9.73;;;3.45;;
37973;SDS011;23796;51.458;7.000;2023-07-31T01:55:59;6.28;;;3.08;;
37973;SDS011;23796;51.458;7.000;2023-07-31T01:58:25;9.48;;;3.15;;
37973;SDS011;23796;51.458;7.000;2023-07-31T02:00:50;7.32;;;3.17;;
37973;SDS011;23796;51.458;7.000;2023-07-31T02:03:16;9.68;;;3.22;;
37973;SDS011;23796;51.458;7.000;2023-07-31T02:05:45;9.20;;;3.05;;
37973;SDS011;23796;51.458;7.000;2023-07-31T02:08:11;9.90;;;3.55;;
37973;SDS011;23796;51.458;7.000;2023-07-31T02:10:37;8.82;;;3.50;;
37973;SDS011;23796;51.458;7.000;2023-07-31T02:13:03;6.32;;;2.92;;
37973;SDS011;23796;51.458;7.000;2023-07-31T02:15:29;8.85;;;3.25;;
37973;SDS011;23796;51.458;7.000;2023-07-31T02:17:55;7.68;;;3.38;;
37973;SDS011;23796;51.458;7.000;2023-07-31T02:20:23;6.35;;;3.10;;
37973;SDS011;23796;51.458;7.000;2023-07-31T02:22:49;7.75;;;3.28;;
37973;SDS011;23796;51.458;7.000;2023-07-31T02:25:17;9.25;;;3.13;;
37973;SDS011;23796;51.458;7.000;2023-07-31T02:27:42;8.05;;;3.25;;
37973;SDS011;23796;51.458;7.000;2023-07-31T02:30:08;9.15;;;3.47;;
37973;SDS011;23796;51.458;7.000;2023-07-31T02:32:34;7.68;;;2.90;;
37973;SDS011;23796;51.458;7.000;2023-07-31T02:35:00;9.60;;;3.28;;
37973;SDS011;23796;51.458;7.000;2023-07-31T02:37:25;8.98;;;3.95;;
37973;SDS011;23796;51.458;7.000;2023-07-31T02:39:53;7.43;;;3.05;;
37973;SDS011;23796;51.458;7.000;2023-07-31T02:42:19;7.25;;;3.10;;
37973;SDS011;23796;51.458;7.000;2023-07-31T02:44:44;7.45;;;2.70;;
37973;SDS011;23796;51.458;7.000;2023-07-31T02:47:10;7.38;;;2.83;;
37973;SDS011;23796;51.458;7.000;2023-07-31T02:49:35;6.97;;;3.40;;
37973;SDS011;23796;51.458;7.000;2023-07-31T02:52:01;5.78;;;2.85;;
37973;SDS011;23796;51.458;7.000;2023-07-31T02:54:27;9.73;;;3.50;;
37973;SDS011;23796;51.458;7.000;2023-07-31T02:56:52;7.85;;;3.17;;
37973;SDS011;23796;51.458;7.000;2023-07-31T02:59:18;7.40;;;3.30;;
37973;SDS011;23796;51.458;7.000;2023-07-31T03:01:44;8.70;;;3.45;;
37973;SDS011;23796;51.458;7.000;2023-07-31T03:04:09;10.23;;;3.22;;
37973;SDS011;23796;51.458;7.000;2023-07-31T03:06:35;8.30;;;3.78;;
37973;SDS011;23796;51.458;7.000;2023-07-31T03:09:03;8.77;;;3.40;;
37973;SDS011;23796;51.458;7.000;2023-07-31T03:11:28;7.97;;;3.85;;
37973;SDS011;23796;51.458;7.000;2023-07-31T03:13:56;8.75;;;3.58;;
37973;SDS011;23796;51.458;7.000;2023-07-31T03:16:22;7.85;;;3.17;;
37973;SDS011;23796;51.458;7.000;2023-07-31T03:18:52;9.23;;;3.90;;
37973;SDS011;23796;51.458;7.000;2023-07-31T03:21:18;8.80;;;3.30;;
37973;SDS011;23796;51.458;7.000;2023-07-31T03:23:43;8.38;;;3.75;;
37973;SDS011;23796;51.458;7.000;2023-07-31T03:26:09;10.05;;;3.40;;
37973;SDS011;23796;51.458;7.000;2023-07-31T03:28:34;13.15;;;3.50;;
37973;SDS011;23796;51.458;7.000;2023-07-31T03:31:00;8.60;;;3.40;;
37973;SDS011;23796;51.458;7.000;2023-07-31T03:33:26;9.80;;;3.20;;
37973;SDS011;23796;51.458;7.000;2023-07-31T03:35:52;6.80;;;3.40;;
37973;SDS011;23796;51.458;7.000;2023-07-31T03:38:18;10.10;;;3.63;;
37973;SDS011;23796;51.458;7.000;2023-07-31T03:40:43;9.27;;;3.10;;
37973;SDS011;23796;51.458;7.000;2023-07-31T03:43:09;8.75;;;3.50;;
37973;SDS011;23796;51.458;7.000;2023-07-31T03:45:35;6.60;;;2.85;;
37973;SDS011;23796;51.458;7.000;2023-07-31T03:48:01;9.40;;;3.10;;
37973;SDS011;23796;51.458;7.000;2023-07-31T03:50:26;7.93;;;3.22;;
37973;SDS011;23796;51.458;7.000;2023-07-31T03:52:52;6.90;;;3.08;;
37973;SDS011;23796;51.458;7.000;2023-07-31T03:55:18;9.57;;;3.15;;
37973;SDS011;23796;51.458;7.000;2023-07-31T03:57:43;5.95;;;3.00;;
37973;SDS011;23796;51.458;7.000;2023-07-31T04:00:09;7.30;;;3.17;;
37973;SDS011;23796;51.458;7.000;2023-07-31T04:02:35;6.68;;;2.83;;
37973;SDS011;23796;51.458;7.000;2023-07-31T04:05:01;7.90;;;3.08;;
37973;SDS011;23796;51.458;7.000;2023-07-31T04:07:26;8.25;;;3.28;;
37973;SDS011;23796;51.458;7.000;2023-07-31T04:09:52;7.18;;;2.80;;
37973;SDS011;23796;51.458;7.000;2023-07-31T04:12:17;7.63;;;3.00;;
37973;SDS011;23796;51.458;7.000;2023-07-31T04:14:43;8.10;;;3.33;;
37973;SDS011;23796;51.458;7.000;2023-07-31T04:17:09;7.00;;;3.03;;
37973;SDS011;23796;51.458;7.000;2023-07-31T04:19:36;8.82;;;3.53;;
37973;SDS011;23796;51.458;7.000;2023-07-31T04:22:02;6.45;;;2.90;;
37973;SDS011;23796;51.458;7.000;2023-07-31T04:24:28;8.98;;;3.40;;
37973;SDS011;23796;51.458;7.000;2023-07-31T04:26:54;8.18;;;3.10;;
37973;SDS011;23796;51.458;7.000;2023-07-31T04:29:19;8.18;;;3.00;;
37973;SDS011;23796;51.458;7.000;2023-07-31T04:31:47;7.90;;;3.30;;
37973;SDS011;23796;51.458;7.000;2023-07-31T04:34:13;9.43;;;4.15;;
37973;SDS011;23796;51.458;7.000;2023-07-31T04:36:39;7.93;;;3.20;;
37973;SDS011;23796;51.458;7.000;2023-07-31T04:39:07;9.50;;;3.08;;
37973;SDS011;23796;51.458;7.000;2023-07-31T04:41:32;6.68;;;3.00;;
37973;SDS011;23796;51.458;7.000;2023-07-31T04:43:58;8.57;;;3.45;;
37973;SDS011;23796;51.458;7.000;2023-07-31T04:46:24;5.82;;;2.85;;
37973;SDS011;23796;51.458;7.000;2023-07-31T04:48:50;7.65;;;3.20;;
37973;SDS011;23796;51.458;7.000;2023-07-31T04:51:16;6.95;;;3.20;;
37973;SDS011;23796;51.458;7.000;2023-07-31T04:53:41;7.35;;;3.05;;
37973;SDS011;23796;51.458;7.000;2023-07-31T04:56:07;6.07;;;2.95;;
37973;SDS011;23796;51.458;7.000;2023-07-31T04:58:35;9.23;;;3.30;;
37973;SDS011;23796;51.458;7.000;2023-07-31T05:01:01;7.47;;;3.25;;
37973;SDS011;23796;51.458;7.000;2023-07-31T05:03:29;8.98;;;3.95;;
37973;SDS011;23796;51.458;7.000;2023-07-31T05:05:54;7.75;;;3.17;;
37973;SDS011;23796;51.458;7.000;2023-07-31T05:08:20;7.40;;;3.40;;
37973;SDS011;23796;51.458;7.000;2023-07-31T05:10:46;8.70;;;3.50;;
37973;SDS011;23796;51.458;7.000;2023-07-31T05:13:11;10.80;;;3.63;;
37973;SDS011;23796;51.458;7.000;2023-07-31T05:15:42;5.93;;;3.00;;
37973;SDS011;23796;51.458;7.000;2023-07-31T05:18:07;5.25;;;2.83;;
37973;SDS011;23796;51.458;7.000;2023-07-31T05:20:33;7.20;;;3.20;;
37973;SDS011;23796;51.458;7.000;2023-07-31T05:22:58;7.65;;;2.95;;
37973;SDS011;23796;51.458;7.000;2023-07-31T05:25:24;8.98;;;3.50;;
37973;SDS011;23796;51.458;7.000;2023-07-31T05:27:52;6.32;;;2.67;;
37973;SDS011;23796;51.458;7.000;2023-07-31T05:30:18;7.05;;;3.80;;
37973;SDS011;23796;51.458;7.000;2023-07-31T05:32:43;8.88;;;3.63;;
37973;SDS011;23796;51.458;7.000;2023-07-31T05:35:11;7.80;;;3.13;;
37973;SDS011;23796;51.458;7.000;2023-07-31T05:37:37;6.85;;;3.00;;
37973;SDS011;23796;51.458;7.000;2023-07-31T05:40:03;6.70;;;3.28;;
37973;SDS011;23796;51.458;7.000;2023-07-31T05:42:32;6.95;;;3.20;;
37973;SDS011;23796;51.458;7.000;2023-07-31T05:44:57;5.13;;;2.85;;
37973;SDS011;23796;51.458;7.000;2023-07-31T05:47:23;6.70;;;3.33;;
37973;SDS011;23796;51.458;7.000;2023-07-31T05:49:48;5.90;;;3.15;;
37973;SDS011;23796;51.458;7.000;2023-07-31T05:52:17;7.85;;;3.13;;
37973;SDS011;23796;51.458;7.000;2023-07-31T05:54:43;6.72;;;3.20;;
37973;SDS011;23796;51.458;7.000;2023-07-31T05:57:10;7.28;;;3.00;;
37973;SDS011;23796;51.458;7.000;2023-07-31T05:59:36;8.13;;;3.47;;
37973;SDS011;23796;51.458;7.000;2023-07-31T06:02:02;6.53;;;3.00;;
37973;SDS011;23796;51.458;7.000;2023-07-31T06:04:27;6.82;;;3.00;;
37973;SDS011;23796;51.458;7.000;2023-07-31T06:06:53;6.88;;;3.53;;
37973;SDS011;23796;51.458;7.000;2023-07-31T06:09:19;7.15;;;2.78;;
37973;SDS011;23796;51.458;7.000;2023-07-31T06:11:45;7.50;;;3.30;;
37973;SDS011;23796;51.458;7.000;2023-07-31T06:14:13;7.13;;;2.70;;
37973;SDS011;23796;51.458;7.000;2023-07-31T06:16:39;6.15;;;2.90;;
37973;SDS011;23796;51.458;7.000;2023-07-31T06:19:09;6.45;;;3.00;;
37973;SDS011;23796;51.458;7.000;2023-07-31T06:21:37;6.10;;;3.00;;
37973;SDS011;23796;51.458;7.000;2023-07-31T06:24:04;7.38;;;3.22;;
37973;SDS011;23796;51.458;7.000;2023-07-31T06:26:32;7.95;;;3.67;;
37973;SDS011;23796;51.458;7.000;2023-07-31T06:28:58;8.95;;;3.35;;
37973;SDS011;23796;51.458;7.000;2023-07-31T06:31:26;9.32;;;3.72;;
37973;SDS011;23796;51.458;7.000;2023-07-31T06:33:54;7.95;;;3.25;;
37973;SDS011;23796;51.458;7.000;2023-07-31T06:36:19;7.47;;;3.58;;
37973;SDS011;23796;51.458;7.000;2023-07-31T06:38:45;5.28;;;3.00;;
37973;SDS011;23796;51.458;7.000;2023-07-31T06:41:11;7.20;;;3.38;;
37973;SDS011;23796;51.458;7.000;2023-07-31T06:43:36;7.00;;;3.10;;
37973;SDS011;23796;51.458;7.000;2023-07-31T06:46:05;5.18;;;2.63;;
37973;SDS011;23796;51.458;7.000;2023-07-31T06:48:32;5.30;;;2.90;;
37973;SDS011;23796;51.458;7.000;2023-07-31T06:51:01;7.93;;;3.40;;
37973;SDS011;23796;51.458;7.000;2023-07-31T06:53:27;6.65;;;3.28;;
37973;SDS011;23796;51.458;7.000;2023-07-31T06:55:54;5.25;;;2.60;;
37973;SDS011;23796;51.458;7.000;2023-07-31T06:58:20;5.72;;;3.20;;
37973;SDS011;23796;51.458;7.000;2023-07-31T07:00:47;5.57;;;2.95;;
37973;SDS011;23796;51.458;7.000;2023-07-31T07:03:14;5.72;;;2.75;;
37973;SDS011;23796;51.458;7.000;2023-07-31T07:05:41;7.15;;;3.20;;
37973;SDS011;23796;51.458;7.000;2023-07-31T07:08:07;7.72;;;2.67;;
37973;SDS011;23796;51.458;7.000;2023-07-31T07:10:32;8.05;;;3.20;;
37973;SDS011;23796;51.458;7.000;2023-07-31T07:12:58;5.82;;;2.72;;
37973;SDS011;23796;51.458;7.000;2023-07-31T07:15:24;5.55;;;2.88;;
37973;SDS011;23796;51.458;7.000;2023-07-31T07:17:50;6.88;;;2.60;;
37973;SDS011;23796;51.458;7.000;2023-07-31T07:20:15;5.88;;;2.70;;
37973;SDS011;23796;51.458;7.000;2023-07-31T07:22:41;4.78;;;2.55;;
37973;SDS011;23796;51.458;7.000;2023-07-31T07:25:08;5.03;;;2.85;;
37973;SDS011;23796;51.458;7.000;2023-07-31T07:27:34;5.82;;;2.60;;
37973;SDS011;23796;51.458;7.000;2023-07-31T07:29:59;6.25;;;3.40;;
37973;SDS011;23796;51.458;7.000;2023-07-31T07:32:27;7.32;;;3.03;;
37973;SDS011;23796;51.458;7.000;2023-07-31T07:34:53;5.43;;;3.22;;
37973;SDS011;23796;51.458;7.000;2023-07-31T07:37:20;6.35;;;2.70;;
37973;SDS011;23796;51.458;7.000;2023-07-31T07:39:47;5.57;;;2.72;;
37973;SDS011;23796;51.458;7.000;2023-07-31T07:42:15;4.68;;;2.85;;
37973;SDS011;23796;51.458;7.000;2023-07-31T07:44:41;4.20;;;2.35;;
37973;SDS011;23796;51.458;7.000;2023-07-31T07:47:07;5.18;;;2.58;;
37973;SDS011;23796;51.458;7.000;2023-07-31T07:49:33;5.20;;;2.70;;
37973;SDS011;23796;51.458;7.000;2023-07-31T07:52:00;6.55;;;3.08;;
37973;SDS011;23796;51.458;7.000;2023-07-31T07:54:25;4.70;;;2.30;;
37973;SDS011;23796;51.458;7.000;2023-07-31T07:56:53;5.53;;;2.97;;
37973;SDS011;23796;51.458;7.000;2023-07-31T07:59:19;6.13;;;2.90;;
37973;SDS011;23796;51.458;7.000;2023-07-31T08:01:45;6.32;;;2.72;;
37973;SDS011;23796;51.458;7.000;2023-07-31T08:04:11;5.47;;;2.38;;
37973;SDS011;23796;51.458;7.000;2023-07-31T08:06:36;4.10;;;2.05;;
37973;SDS011;23796;51.458;7.000;2023-07-31T08:09:02;4.90;;;2.45;;
37973;SDS011;23796;51.458;7.000;2023-07-31T08:11:33;5.00;;;2.00;;
37973;SDS011;23796;51.458;7.000;2023-07-31T08:13:58;4.85;;;2.53;;
37973;SDS011;23796;51.458;7.000;2023-07-31T08:16:24;4.40;;;2.00;;
37973;SDS011;23796;51.458;7.000;2023-07-31T08:18:50;4.07;;;2.13;;
37973;SDS011;23796;51.458;7.000;2023-07-31T08:21:15;3.90;;;2.28;;
37973;SDS011;23796;51.458;7.000;2023-07-31T08:23:41;5.25;;;2.30;;
37973;SDS011;23796;51.458;7.000;2023-07-31T08:26:06;4.72;;;2.47;;
37973;SDS011;23796;51.458;7.000;2023-07-31T08:28:32;4.22;;;2.08;;
37973;SDS011;23796;51.458;7.000;2023-07-31T08:30:58;4.53;;;1.88;;
37973;SDS011;23796;51.458;7.000;2023-07-31T08:33:26;4.63;;;1.98;;
37973;SDS011;23796;51.458;7.000;2023-07-31T08:35:51;4.32;;;1.92;;
37973;SDS011;23796;51.458;7.000;2023-07-31T08:38:17;4.70;;;2.10;;
37973;SDS011;23796;51.458;7.000;2023-07-31T08:57:48;4.13;;;2.10;;
37973;SDS011;23796;51.458;7.000;2023-07-31T09:00:13;4.18;;;1.80;;
37973;SDS011;23796;51.458;7.000;2023-07-31T09:02:46;4.15;;;2.20;;
37973;SDS011;23796;51.458;7.000;2023-07-31T09:05:19;5.40;;;1.85;;
37973;SDS011;23796;51.458;7.000;2023-07-31T09:07:48;5.97;;;1.83;;
37973;SDS011;23796;51.458;7.000;2023-07-31T09:10:16;3.58;;;1.58;;
37973;SDS011;23796;51.458;7.000;2023-07-31T09:12:41;4.07;;;2.08;;
37973;SDS011;23796;51.458;7.000;2023-07-31T09:15:10;3.53;;;1.67;;
37973;SDS011;23796;51.458;7.000;2023-07-31T09:17:36;3.30;;;1.83;;
37973;SDS011;23796;51.458;7.000;2023-07-31T09:20:18;3.40;;;1.60;;
37973;SDS011;23796;51.458;7.000;2023-07-31T09:22:46;4.53;;;1.85;;
37973;SDS011;23796;51.458;7.000;2023-07-31T09:25:19;3.90;;;1.65;;
37973;SDS011;23796;51.458;7.000;2023-07-31T09:30:26;4.13;;;1.60;;
37973;SDS011;23796;51.458;7.000;2023-07-31T09:33:00;5.00;;;1.73;;
37973;SDS011;23796;51.458;7.000;2023-07-31T09:35:28;3.60;;;1.45;;
37973;SDS011;23796;51.458;7.000;2023-07-31T09:37:57;4.80;;;1.60;;
37973;SDS011;23796;51.458;7.000;2023-07-31T09:40:24;4.95;;;1.63;;
37973;SDS011;23796;51.458;7.000;2023-07-31T09:42:58;3.13;;;1.80;;
37973;SDS011;23796;51.458;7.000;2023-07-31T09:45:28;2.60;;;1.30;;
37973;SDS011;23796;51.458;7.000;2023-07-31T09:48:01;3.55;;;1.35;;
37973;SDS011;23796;51.458;7.000;2023-07-31T09:50:27;2.90;;;1.50;;
37973;SDS011;23796;51.458;7.000;2023-07-31T09:52:53;2.42;;;1.25;;
37973;SDS011;23796;51.458;7.000;2023-07-31T09:55:19;2.95;;;1.38;;
37973;SDS011;23796;51.458;7.000;2023-07-31T09:57:46;2.80;;;1.20;;
37973;SDS011;23796;51.458;7.000;2023-07-31T10:00:14;2.53;;;1.20;;
37973;SDS011;23796;51.458;7.000;2023-07-31T10:02:46;2.83;;;1.40;;
37973;SDS011;23796;51.458;7.000;2023-07-31T10:05:15;2.50;;;0.90;;
37973;SDS011;23796;51.458;7.000;2023-07-31T10:07:54;2.10;;;1.03;;
37973;SDS011;23796;51.458;7.000;2023-07-31T10:10:23;3.08;;;1.30;;
37973;SDS011;23796;51.458;7.000;2023-07-31T10:12:54;2.30;;;1.10;;
37973;SDS011;23796;51.458;7.000;2023-07-31T10:15:22;2.92;;;1.20;;
37973;SDS011;23796;51.458;7.000;2023-07-31T10:17:49;2.88;;;1.38;;
37973;SDS011;23796;51.458;7.000;2023-07-31T10:20:15;2.80;;;1.25;;
37973;SDS011;23796;51.458;7.000;2023-07-31T10:22:42;2.88;;;1.48;;
37973;SDS011;23796;51.458;7.000;2023-07-31T10:25:08;3.00;;;1.90;;
37973;SDS011;23796;51.458;7.000;2023-07-31T10:27:43;3.40;;;1.60;;
37973;SDS011;23796;51.458;7.000;2023-07-31T10:30:12;4.82;;;1.63;;
37973;SDS011;23796;51.458;7.000;2023-07-31T10:32:41;3.85;;;1.80;;
37973;SDS011;23796;51.458;7.000;2023-07-31T10:35:09;3.92;;;1.77;;
37973;SDS011;23796;51.458;7.000;2023-07-31T10:37:39;3.53;;;1.48;;
37973;SDS011;23796;51.458;7.000;2023-07-31T10:40:11;3.47;;;1.73;;
37973;SDS011;23796;51.458;7.000;2023-07-31T10:42:54;3.85;;;1.70;;
37973;SDS011;23796;51.458;7.000;2023-07-31T10:45:32;3.38;;;1.73;;
37973;SDS011;23796;51.458;7.000;2023-07-31T10:48:12;3.10;;;1.65;;
37973;SDS011;23796;51.458;7.000;2023-07-31T10:50:46;4.28;;;1.80;;
37973;SDS011;23796;51.458;7.000;2023-07-31T10:55:58;4.13;;;1.83;;
37973;SDS011;23796;51.458;7.000;2023-07-31T10:58:27;3.85;;;1.77;;
37973;SDS011;23796;51.458;7.000;2023-07-31T11:00:57;4.18;;;1.98;;
37973;SDS011;23796;51.458;7.000;2023-07-31T11:03:45;4.50;;;2.10;;
37973;SDS011;23796;51.458;7.000;2023-07-31T11:06:16;5.45;;;2.30;;
37973;SDS011;23796;51.458;7.000;2023-07-31T11:08:43;3.47;;;1.85;;
37973;SDS011;23796;51.458;7.000;2023-07-31T11:11:14;3.65;;;1.70;;
37973;SDS011;23796;51.458;7.000;2023-07-31T11:13:47;4.93;;;2.20;;
37973;SDS011;23796;51.458;7.000;2023-07-31T11:16:18;4.57;;;2.22;;
37973;SDS011;23796;51.458;7.000;2023-07-31T11:18:45;3.30;;;1.73;;
37973;SDS011;23796;51.458;7.000;2023-07-31T11:21:17;3.88;;;2.10;;
37973;SDS011;23796;51.458;7.000;2023-07-31T11:23:46;4.50;;;2.10;;
37973;SDS011;23796;51.458;7.000;2023-07-31T11:26:16;4.55;;;2.20;;
37973;SDS011;23796;51.458;7.000;2023-07-31T11:28:43;4.75;;;1.98;;
37973;SDS011;23796;51.458;7.000;2023-07-31T11:31:14;4.20;;;2.10;;
37973;SDS011;23796;51.458;7.000;2023-07-31T11:33:42;4.13;;;1.80;;
37973;SDS011;23796;51.458;7.000;2023-07-31T11:36:16;4.20;;;1.90;;
37973;SDS011;23796;51.458;7.000;2023-07-31T11:38:44;7.15;;;1.92;;
37973;SDS011;23796;51.458;7.000;2023-07-31T11:41:10;4.10;;;1.50;;
37973;SDS011;23796;51.458;7.000;2023-07-31T11:43:38;3.95;;;2.03;;
37973;SDS011;23796;51.458;7.000;2023-07-31T11:46:04;3.50;;;1.83;;
37973;SDS011;23796;51.458;7.000;2023-07-31T11:48:32;4.60;;;2.03;;
37973;SDS011;23796;51.458;7.000;2023-07-31T11:51:01;3.75;;;1.70;;
37973;SDS011;23796;51.458;7.000;2023-07-31T11:56:11;4.40;;;2.10;;
37973;SDS011;23796;51.458;7.000;2023-07-31T11:58:40;3.45;;;1.60;;
37973;SDS011;23796;51.458;7.000;2023-07-31T12:01:08;3.40;;;1.85;;
37973;SDS011;23796;51.458;7.000;2023-07-31T12:03:34;4.40;;;1.60;;
37973;SDS011;23796;51.458;7.000;2023-07-31T12:06:02;3.60;;;1.80;;
37973;SDS011;23796;51.458;7.000;2023-07-31T12:08:28;4.28;;;1.80;;
37973;SDS011;23796;51.458;7.000;2023-07-31T12:11:02;3.95;;;2.15;;
37973;SDS011;23796;51.458;7.000;2023-07-31T12:13:30;3.47;;;1.60;;
37973;SDS011;23796;51.458;7.000;2023-07-31T12:16:01;3.22;;;1.50;;
37973;SDS011;23796;51.458;7.000;2023-07-31T12:18:28;3.80;;;1.60;;
37973;SDS011;23796;51.458;7.000;2023-07-31T12:20:59;5.35;;;2.08;;
37973;SDS011;23796;51.458;7.000;2023-07-31T12:23:26;3.15;;;1.52;;
37973;SDS011;23796;51.458;7.000;2023-07-31T12:26:04;3.40;;;1.42;;
37973;SDS011;23796;51.458;7.000;2023-07-31T12:28:44;4.90;;;1.90;;
37973;SDS011;23796;51.458;7.000;2023-07-31T12:31:12;3.33;;;1.80;;
37973;SDS011;23796;51.458;7.000;2023-07-31T12:33:38;3.97;;;1.65;;
37973;SDS011;23796;51.458;7.000;2023-07-31T12:36:09;4.25;;;2.15;;
37973;SDS011;23796;51.458;7.000;2023-07-31T12:38:37;6.50;;;1.40;;
37973;SDS011;23796;51.458;7.000;2023-07-31T12:41:03;3.28;;;1.50;;
37973;SDS011;23796;51.458;7.000;2023-07-31T12:43:34;4.50;;;1.33;;
37973;SDS011;23796;51.458;7.000;2023-07-31T12:46:01;3.08;;;1.35;;
37973;SDS011;23796;51.458;7.000;2023-07-31T12:48:27;3.85;;;1.63;;
37973;SDS011;23796;51.458;7.000;2023-07-31T12:50:55;2.28;;;1.02;;
37973;SDS011;23796;51.458;7.000;2023-07-31T12:53:21;3.20;;;1.20;;
37973;SDS011;23796;51.458;7.000;2023-07-31T12:55:49;4.88;;;1.30;;
37973;SDS011;23796;51.458;7.000;2023-07-31T12:58:15;2.92;;;1.27;;
37973;SDS011;23796;51.458;7.000;2023-07-31T13:00:43;3.10;;;1.45;;
37973;SDS011;23796;51.458;7.000;2023-07-31T13:03:11;2.67;;;1.02;;
37973;SDS011;23796;51.458;7.000;2023-07-31T13:05:36;3.20;;;1.35;;
37973;SDS011;23796;51.458;7.000;2023-07-31T13:08:04;3.05;;;1.20;;
37973;SDS011;23796;51.458;7.000;2023-07-31T13:10:30;3.25;;;1.20;;
37973;SDS011;23796;51.458;7.000;2023-07-31T13:12:55;2.03;;;1.00;;
37973;SDS011;23796;51.458;7.000;2023-07-31T13:15:23;2.85;;;1.58;;
37973;SDS011;23796;51.458;7.000;2023-07-31T13:17:51;3.08;;;1.52;;
37973;SDS011;23796;51.458;7.000;2023-07-31T13:20:17;2.13;;;1.20;;
37973;SDS011;23796;51.458;7.000;2023-07-31T13:22:45;5.05;;;3.60;;
37973;SDS011;23796;51.458;7.000;2023-07-31T13:25:13;3.33;;;1.13;;
37973;SDS011;23796;51.458;7.000;2023-07-31T13:27:38;2.08;;;1.00;;
37973;SDS011;23796;51.458;7.000;2023-07-31T13:30:04;2.88;;;1.45;;
37973;SDS011;23796;51.458;7.000;2023-07-31T13:32:30;2.70;;;1.35;;
37973;SDS011;23796;51.458;7.000;2023-07-31T13:34:56;2.38;;;1.35;;
37973;SDS011;23796;51.458;7.000;2023-07-31T13:37:22;4.05;;;2.00;;
37973;SDS011;23796;51.458;7.000;2023-07-31T13:39:47;3.20;;;1.30;;
37973;SDS011;23796;51.458;7.000;2023-07-31T13:42:13;4.00;;;1.80;;
37973;SDS011;23796;51.458;7.000;2023-07-31T13:44:39;2.88;;;1.60;;
37973;SDS011;23796;51.458;7.000;2023-07-31T13:47:05;3.63;;;1.60;;
37973;SDS011;23796;51.458;7.000;2023-07-31T13:49:31;3.25;;;1.60;;
37973;SDS011;23796;51.458;7.000;2023-07-31T13:51:57;3.55;;;1.90;;
37973;SDS011;23796;51.458;7.000;2023-07-31T13:54:27;4.25;;;2.08;;
37973;SDS011;23796;51.458;7.000;2023-07-31T13:56:53;3.65;;;1.80;;
37973;SDS011;23796;51.458;7.000;2023-07-31T13:59:19;3.45;;;1.85;;
37973;SDS011;23796;51.458;7.000;2023-07-31T14:01:45;3.55;;;1.98;;
37973;SDS011;23796;51.458;7.000;2023-07-31T14:04:11;4.28;;;1.98;;
37973;SDS011;23796;51.458;7.000;2023-07-31T14:06:37;5.13;;;2.50;;
37973;SDS011;23796;51.458;7.000;2023-07-31T14:09:03;4.05;;;1.88;;
37973;SDS011;23796;51.458;7.000;2023-07-31T14:11:30;4.88;;;1.88;;
37973;SDS011;23796;51.458;7.000;2023-07-31T14:13:59;5.38;;;1.98;;
37973;SDS011;23796;51.458;7.000;2023-07-31T14:16:27;3.85;;;2.25;;
37973;SDS011;23796;51.458;7.000;2023-07-31T14:18:53;6.05;;;2.30;;
37973;SDS011;23796;51.458;7.000;2023-07-31T14:21:19;4.25;;;1.92;;
37973;SDS011;23796;51.458;7.000;2023-07-31T14:23:45;3.80;;;2.10;;
37973;SDS011;23796;51.458;7.000;2023-07-31T14:26:11;4.28;;;2.22;;
37973;SDS011;23796;51.458;7.000;2023-07-31T14:28:39;3.97;;;2.40;;
37973;SDS011;23796;51.458;7.000;2023-07-31T14:31:04;3.65;;;1.77;;
37973;SDS011;23796;51.458;7.000;2023-07-31T14:33:30;4.43;;;2.25;;
37973;SDS011;23796;51.458;7.000;2023-07-31T14:35:56;3.65;;;2.20;;
37973;SDS011;23796;51.458;7.000;2023-07-31T14:38:21;5.32;;;2.28;;
37973;SDS011;23796;51.458;7.000;2023-07-31T14:40:47;4.57;;;2.22;;
37973;SDS011;23796;51.458;7.000;2023-07-31T14:43:13;4.43;;;2.13;;
37973;SDS011;23796;51.458;7.000;2023-07-31T14:45:41;4.70;;;2.30;;
37973;SDS011;23796;51.458;7.000;2023-07-31T14:48:07;5.90;;;2.30;;
37973;SDS011;23796;51.458;7.000;2023-07-31T14:50:33;3.95;;;1.95;;
37973;SDS011;23796;51.458;7.000;2023-07-31T14:53:01;4.20;;;2.42;;
37973;SDS011;23796;51.458;7.000;2023-07-31T14:55:26;5.30;;;2.30;;
37973;SDS011;23796;51.458;7.000;2023-07-31T14:58:00;3.92;;;2.15;;
37973;SDS011;23796;51.458;7.000;2023-07-31T15:00:25;4.22;;;2.28;;
37973;SDS011;23796;51.458;7.000;2023-07-31T15:02:54;5.18;;;2.17;;
37973;SDS011;23796;51.458;7.000;2023-07-31T15:05:26;3.80;;;2.28;;
37973;SDS011;23796;51.458;7.000;2023-07-31T15:07:55;4.93;;;2.35;;
37973;SDS011;23796;51.458;7.000;2023-07-31T15:10:21;4.38;;;2.13;;
37973;SDS011;23796;51.458;7.000;2023-07-31T15:12:47;4.97;;;2.25;;
37973;SDS011;23796;51.458;7.000;2023-07-31T15:15:13;4.40;;;2.20;;